Colorado Springs, CO (80951)

7:11 AM MDT on June 03, 2015 (GMT -0600)
Rustic Hills - Rock Island Trail | | Change Station
CLOSE
Current Station
Personal Weather Station
Location: Colorado Springs, CO
Elevation: 6355 ft
Nearby Weather Stations

Elev 6355 ft 38.86 °N, 104.73 °W | Updated 12 minutes ago

Clear
Clear
62.8 °F
Feels Like 62.8 °F
N
5.8
Wind Variable Wind from NE

Today
High -- | Low -- °F
--% Chance of Precip.
Yesterday
High -- | Low -- °F
Precip. -- in
5:34 AM 8:19 PM
Full, 99% visible
Pressure 29.76 in
Visibility 10.0 miles
Clouds Scattered Clouds 25000 ft
Dew Point 35 °F
Humidity 36%
Rainfall 0.00 in
Snow Depth Not available.
UV 1 out of 12
Pollen 8.60 out of 12
Air Quality Not available.
Flu Activity Sporadic
METAR KCOS 031254Z 34008KT 10SM SCT250 18/02 A3004 RMK AO2 SLP078 T01830022

More Conditions Fewer Conditions

Pressure 29.76 in
Visibility 10.0 miles
Clouds Scattered Clouds 25000 ft
Dew Point 35 °F
Humidity 36%
Rainfall 0.00 in
Snow Depth Not available.
UV 1 out of 12
Pollen 8.60 out of 12
Air Quality Not available.
Flu Activity Sporadic
METAR KCOS 031254Z 34008KT 10SM SCT250 18/02 A3004 RMK AO2 SLP078 T01830022

More Conditions Fewer Conditions

10-Day Weather Forecast

×

Almanac

Astronomy

Jun. 03, 2015 Rise Set
Actual Time
Civil Twilight
Nautical Twilight
Astronomical Twilight
Moon
Length of Visible Light
Length of Day
Tomorrow will be .
, % of the Moon is Illuminated

Today's Extremes

State Highs State Lows

Community

WunderPhotos

Upload Photos

1,826,213 photos uploaded!

WunderBlogs® & News

Nearby

Air Quality

  Air Quality AQ Index Pollutant
Not available.

Snow Depth

Station Depth Elevation

Earthquake Activity

City Distance Mag. Time & Date
Minimum magnitude displayed is 2.5.

Coastal Water Temperatures

Place Temperature

Stations

Nearby Weather Stations

Station Location Temp. Windchill Dew Point Humidity Wind Precip. Elev Updated Type